createdAt,value
2022-12-13T00:01:58.224Z,100121.47
2022-12-13T00:05:24.395Z,100124.22
2022-12-13T00:07:53.731Z,100168.09
2022-12-13T00:10:23.169Z,100163.69
2022-12-13T00:12:52.407Z,100210.81
2022-12-13T00:15:23.115Z,100266.94
2022-12-13T00:17:52.379Z,100266.13
2022-12-13T00:20:21.793Z,100242.00
2022-12-13T00:22:53.814Z,100095.47
2022-12-13T00:25:23.227Z,100205.22
2022-12-13T00:27:52.519Z,100171.47
2022-12-13T00:30:23.321Z,100061.09
2022-12-13T00:32:52.608Z,100252.88
2022-12-13T00:35:21.865Z,100207.19
2022-12-13T00:37:51.045Z,100144.28
2022-12-13T00:40:20.656Z,100192.94
2022-12-13T00:42:49.974Z,100048.53
2022-12-13T00:45:19.360Z,100070.41
2022-12-13T00:47:50.095Z,100174.00
2022-12-13T00:50:19.433Z,100093.63
2022-12-13T00:52:48.641Z,100090.59
2022-12-13T00:55:17.905Z,100186.47
2022-12-13T00:57:47.101Z,100115.69
2022-12-13T01:00:16.717Z,100225.81
2022-12-13T01:02:46.127Z,100052.53
2022-12-13T01:05:32.326Z,100214.81
2022-12-13T01:08:06.441Z,100129.19
2022-12-13T01:10:35.730Z,100194.63
2022-12-13T01:13:04.942Z,100064.69
2022-12-13T01:15:34.179Z,100090.47
2022-12-13T01:18:03.383Z,100111.28
2022-12-13T01:20:34.142Z,100139.22
2022-12-13T01:23:03.726Z,100107.03
2022-12-13T01:25:33.632Z,99966.72
2022-12-13T01:28:02.953Z,100054.69
2022-12-13T01:30:32.291Z,100218.69
2022-12-13T01:33:01.619Z,100087.53
2022-12-13T01:35:44.954Z,100022.66
2022-12-13T01:38:15.675Z,100041.81
2022-12-13T01:40:47.643Z,100011.25
2022-12-13T01:43:18.489Z,100163.69
2022-12-13T01:45:47.803Z,100106.41
2022-12-13T01:48:20.295Z,100195.19
2022-12-13T01:50:54.939Z,100025.56
2022-12-13T01:53:28.721Z,100209.25
2022-12-13T01:56:04.102Z,100190.50
2022-12-13T01:58:33.909Z,100142.19
2022-12-13T02:01:03.747Z,100016.81
2022-12-13T02:03:34.007Z,100230.03
2022-12-13T02:06:10.090Z,99964.06
2022-12-13T02:08:40.957Z,100020.09
2022-12-13T02:11:11.467Z,100052.59
2022-12-13T02:13:40.835Z,100016.00
2022-12-13T02:16:22.169Z,99963.09
2022-12-13T02:19:08.220Z,100101.72
2022-12-13T02:21:51.548Z,100182.25
2022-12-13T02:24:47.867Z,100033.38
2022-12-13T02:27:42.662Z,100120.53
2022-12-13T02:30:29.890Z,100137.38
2022-12-13T02:33:21.901Z,100198.59
2022-12-13T02:35:59.375Z,100088.22
2022-12-13T02:38:35.515Z,100203.88
2022-12-13T02:41:15.722Z,100155.59
2022-12-13T02:43:52.470Z,100082.97
2022-12-13T02:46:34.662Z,100221.94
2022-12-13T02:49:05.432Z,100113.34
2022-12-13T02:51:35.069Z,100184.63
2022-12-13T02:54:05.041Z,100175.13
2022-12-13T02:56:34.753Z,100183.03
2022-12-13T02:59:07.303Z,100024.34
2022-12-13T03:01:53.033Z,100095.91
2022-12-13T03:05:02.394Z,100128.63
2022-12-13T03:07:41.081Z,100127.41
2022-12-13T03:10:18.356Z,100065.75
2022-12-13T03:13:13.545Z,100213.22
2022-12-13T03:15:47.365Z,100106.91
2022-12-13T03:18:22.463Z,100206.50
2022-12-13T03:20:54.345Z,100136.66
2022-12-13T03:23:23.946Z,100029.06
2022-12-13T03:25:55.380Z,100182.09
2022-12-13T03:28:25.309Z,100104.13
2022-12-13T03:30:54.650Z,100116.53
2022-12-13T03:33:25.491Z,100115.41
2022-12-13T03:35:54.735Z,100105.50
2022-12-13T03:38:24.778Z,100087.13
2022-12-13T03:40:57.890Z,100114.03
2022-12-13T03:43:27.309Z,100139.13
2022-12-13T03:45:57.090Z,100083.75
2022-12-13T03:48:27.879Z,100064.97
2022-12-13T03:50:57.231Z,99954.72
2022-12-13T03:53:34.037Z,100213.63
2022-12-13T03:56:05.190Z,100164.69
2022-12-13T03:58:37.970Z,100235.59
2022-12-13T04:01:09.042Z,100228.03
2022-12-13T04:03:40.998Z,100176.09
2022-12-13T04:06:11.217Z,100222.03
2022-12-13T04:08:41.515Z,100176.78
2022-12-13T04:11:24.450Z,100189.97
2022-12-13T04:13:54.411Z,100089.00
2022-12-13T04:16:24.404Z,100054.72
2022-12-13T04:18:55.198Z,100222.84
2022-12-13T04:21:24.464Z,100155.84
2022-12-13T04:23:53.748Z,100211.13
2022-12-13T04:26:23.004Z,100081.59
2022-12-13T04:28:54.707Z,100151.63
2022-12-13T04:31:24.381Z,99972.53
2022-12-13T04:33:55.187Z,100113.84
2022-12-13T04:36:31.170Z,100047.19
2022-12-13T04:39:02.947Z,100214.81
2022-12-13T04:41:36.913Z,100141.94
2022-12-13T04:44:07.264Z,100080.06
2022-12-13T04:47:00.988Z,100186.72
2022-12-13T04:49:32.666Z,100228.59
2022-12-13T04:52:02.666Z,100067.47
2022-12-13T04:54:36.414Z,100150.22
2022-12-13T04:57:08.481Z,100112.78
2022-12-13T04:59:38.828Z,100216.13
2022-12-13T05:02:09.513Z,100212.41
2022-12-13T05:04:40.318Z,100171.38
2022-12-13T05:07:09.607Z,100058.56
2022-12-13T05:09:38.841Z,100152.00
2022-12-13T05:12:21.936Z,100152.22
2022-12-13T05:14:52.275Z,100226.47
2022-12-13T05:17:21.986Z,100221.41
2022-12-13T05:19:52.875Z,100236.97
2022-12-13T05:22:22.049Z,100225.94
2022-12-13T05:24:51.448Z,100215.63
2022-12-13T05:27:23.939Z,100233.91
2022-12-13T05:30:04.496Z,100212.03
2022-12-13T05:32:44.043Z,100227.84
2022-12-13T05:35:23.496Z,100190.66
2022-12-13T05:37:53.989Z,100230.06
2022-12-13T05:40:24.079Z,100233.91
2022-12-13T05:43:01.280Z,100229.78
2022-12-13T05:45:31.031Z,100250.47
2022-12-13T05:48:00.570Z,100253.00
2022-12-13T05:50:31.345Z,100260.66
2022-12-13T05:53:00.415Z,100249.44
2022-12-13T05:55:29.560Z,100261.72
2022-12-13T05:58:02.379Z,100262.53
2022-12-13T06:00:32.007Z,100260.38
2022-12-13T06:03:02.127Z,100266.09
2022-12-13T06:05:33.477Z,100269.31
2022-12-13T06:08:02.882Z,100268.13
2022-12-13T06:11:10.931Z,100273.09
2022-12-13T06:13:43.016Z,100266.94
2022-12-13T06:16:23.026Z,100281.91
2022-12-13T06:19:03.228Z,100283.72
2022-12-13T06:21:41.070Z,100288.81
2022-12-13T06:24:18.381Z,100286.84
2022-12-13T06:26:47.685Z,100260.63
2022-12-13T06:29:23.166Z,100299.59
2022-12-13T06:32:01.392Z,100301.25
2022-12-13T06:34:34.640Z,100258.44
2022-12-13T06:37:08.468Z,100302.44
2022-12-13T06:39:37.634Z,100287.56
2022-12-13T06:42:08.280Z,100303.72
2022-12-13T06:44:37.468Z,100290.00
2022-12-13T06:47:12.219Z,100283.56
2022-12-13T06:49:44.716Z,100310.78
2022-12-13T06:52:16.299Z,100286.44
2022-12-13T06:54:46.174Z,100310.72
2022-12-13T06:57:15.652Z,100307.06
2022-12-13T06:59:45.063Z,100305.56
2022-12-13T07:02:24.177Z,100313.34
2022-12-13T07:04:56.143Z,100302.13
2022-12-13T07:07:27.606Z,100304.91
2022-12-13T07:09:57.617Z,100310.44
2022-12-13T07:12:26.834Z,100309.69
2022-12-13T07:14:56.707Z,100313.19
2022-12-13T07:17:33.995Z,100306.31
2022-12-13T07:20:08.518Z,100314.28
2022-12-13T07:22:47.358Z,100313.75
2022-12-13T07:25:28.004Z,100313.94
2022-12-13T07:28:01.898Z,100322.00
2022-12-13T07:30:32.587Z,100329.97
2022-12-13T07:33:03.547Z,100330.09
2022-12-13T07:35:36.847Z,100331.78
2022-12-13T07:38:08.551Z,100311.63
2022-12-13T07:40:38.104Z,100335.84
2022-12-13T07:43:08.386Z,100328.09
2022-12-13T07:45:38.710Z,100337.63
2022-12-13T07:48:09.084Z,100313.00
2022-12-13T07:50:38.266Z,100343.31
2022-12-13T07:53:10.427Z,100352.91
2022-12-13T07:55:39.988Z,100348.31
2022-12-13T07:58:10.807Z,100361.28
2022-12-13T08:00:41.298Z,100324.44
2022-12-13T08:03:25.099Z,100351.44
2022-12-13T08:06:02.047Z,100361.84
2022-12-13T08:08:33.362Z,100365.78
2022-12-13T08:11:07.256Z,100370.63
2022-12-13T08:13:36.677Z,100351.97
2022-12-13T08:16:26.684Z,100383.00
2022-12-13T08:19:03.255Z,100395.44
2022-12-13T08:21:53.943Z,100396.56
2022-12-13T08:24:25.973Z,100405.53
2022-12-13T08:26:55.253Z,100409.41
2022-12-13T08:29:33.925Z,100426.63
2022-12-13T08:32:04.790Z,100415.47
2022-12-13T08:34:33.862Z,100435.09
2022-12-13T08:37:04.206Z,100411.88
2022-12-13T08:39:36.776Z,100453.81
2022-12-13T08:42:16.229Z,100457.63
2022-12-13T08:44:46.908Z,100444.31
2022-12-13T08:47:24.858Z,100442.00
2022-12-13T08:50:03.017Z,100424.59
2022-12-13T08:52:40.673Z,100470.53
2022-12-13T08:55:13.648Z,100464.69
2022-12-13T08:57:43.489Z,100476.59
2022-12-13T09:00:15.158Z,100475.03
2022-12-13T09:02:44.610Z,100452.00
2022-12-13T09:05:33.103Z,100495.31
2022-12-13T09:08:04.754Z,100494.22
2022-12-13T09:11:00.912Z,100490.47
2022-12-13T09:13:32.932Z,100507.66
2022-12-13T09:16:14.141Z,100504.75
2022-12-13T09:18:44.368Z,100499.88
2022-12-13T09:21:22.394Z,100504.13
2022-12-13T09:24:01.464Z,100509.94
2022-12-13T09:26:38.123Z,100494.16
2022-12-13T09:29:10.611Z,100530.56
2022-12-13T09:31:41.390Z,100525.22
2022-12-13T09:34:11.057Z,100544.97
2022-12-13T09:36:40.530Z,100551.53
2022-12-13T09:39:09.688Z,100548.69
2022-12-13T09:41:44.987Z,100552.75
2022-12-13T09:44:32.760Z,100560.34
2022-12-13T09:47:16.130Z,100552.47
2022-12-13T09:49:53.776Z,100543.50
2022-12-13T09:52:26.491Z,100569.72
2022-12-13T09:55:05.483Z,100589.50
2022-12-13T09:57:39.508Z,100590.38
2022-12-13T10:00:15.361Z,100592.66
2022-12-13T10:02:45.076Z,100600.47
2022-12-13T10:05:37.151Z,100601.13
2022-12-13T10:08:11.302Z,100622.28
2022-12-13T10:10:40.464Z,100606.53
2022-12-13T10:13:19.858Z,100630.41
2022-12-13T10:15:53.446Z,100627.44
2022-12-13T10:18:29.687Z,100639.03
2022-12-13T10:20:59.294Z,100632.53
2022-12-13T10:23:42.707Z,100636.81
2022-12-13T10:26:24.024Z,100658.28
2022-12-13T10:29:04.795Z,100654.06
2022-12-13T10:31:42.400Z,100663.78
2022-12-13T10:34:23.276Z,100674.03
2022-12-13T10:36:53.104Z,100687.53
2022-12-13T10:39:39.838Z,100635.34
2022-12-13T10:42:22.559Z,100659.38
2022-12-13T10:45:12.082Z,100689.25
2022-12-13T10:47:45.928Z,100696.09
2022-12-13T10:50:26.726Z,100684.44
2022-12-13T10:52:56.998Z,100709.50
2022-12-13T10:55:30.534Z,100706.78
2022-12-13T10:58:02.465Z,100713.28
2022-12-13T11:00:40.412Z,100717.25
2022-12-13T11:03:12.450Z,100725.53
2022-12-13T11:05:42.665Z,100732.84
2022-12-13T11:08:23.226Z,100744.09
2022-12-13T11:10:59.989Z,100728.00
2022-12-13T11:13:37.255Z,100722.09
2022-12-13T11:16:22.525Z,100752.63
2022-12-13T11:18:55.397Z,100767.81
2022-12-13T11:21:28.108Z,100762.78
2022-12-13T11:24:01.621Z,100765.19
2022-12-13T11:26:32.810Z,100745.34
2022-12-13T11:29:28.850Z,100780.38
2022-12-13T11:32:07.687Z,100789.66
2022-12-13T11:34:47.522Z,100793.00
2022-12-13T11:37:27.685Z,100798.97
2022-12-13T11:40:01.840Z,100792.19
2022-12-13T11:42:37.248Z,100814.72
2022-12-13T11:45:22.737Z,100810.13
2022-12-13T11:48:03.972Z,100817.94
2022-12-13T11:50:38.850Z,100792.16
2022-12-13T11:53:24.854Z,100801.84
2022-12-13T11:55:59.316Z,100812.03
2022-12-13T11:59:02.018Z,100817.38
2022-12-13T12:01:31.795Z,100750.00
2022-12-13T12:04:24.147Z,100798.41
2022-12-13T12:06:58.050Z,100837.44
2022-12-13T12:09:32.046Z,100858.72
2022-12-13T12:12:04.913Z,100854.03
2022-12-13T12:14:43.500Z,100842.00
2022-12-13T12:17:16.085Z,100838.00
2022-12-13T12:19:51.287Z,100874.03
2022-12-13T12:22:32.753Z,100872.06
2022-12-13T12:25:27.663Z,100879.28
2022-12-13T12:28:07.773Z,100873.53
2022-12-13T12:30:51.413Z,100808.41
2022-12-13T12:33:32.047Z,100867.81
2022-12-13T12:36:19.599Z,100869.47
2022-12-13T12:39:10.724Z,100899.31
2022-12-13T12:41:52.171Z,100897.94
2022-12-13T12:44:35.542Z,100916.56
2022-12-13T12:47:47.985Z,100912.84
2022-12-13T12:50:32.469Z,100932.97
2022-12-13T12:53:13.786Z,100935.91
2022-12-13T12:55:50.893Z,100919.97
2022-12-13T12:58:29.230Z,100939.28
2022-12-13T13:01:19.477Z,100914.81
2022-12-13T13:03:51.885Z,100950.66
2022-12-13T13:06:25.635Z,100956.31
2022-12-13T13:09:01.565Z,100953.13
2022-12-13T13:11:42.844Z,100944.47
2022-12-13T13:14:36.895Z,100979.09
2022-12-13T13:17:39.075Z,100968.97
2022-12-13T13:20:19.959Z,100972.94
2022-12-13T13:22:58.756Z,100986.19
2022-12-13T13:26:00.406Z,100991.84
2022-12-13T13:28:29.111Z,100976.28
2022-12-13T13:31:05.489Z,100999.03
2022-12-13T13:33:46.911Z,101008.06
2022-12-13T13:36:52.800Z,101001.34
2022-12-13T13:39:54.320Z,100983.91
2022-12-13T13:43:18.749Z,100968.09
2022-12-13T13:46:01.293Z,100963.03
2022-12-13T13:48:47.686Z,101015.69
2022-12-13T13:52:25.075Z,100845.16
2022-12-13T13:55:26.447Z,101066.78
2022-12-13T13:58:34.928Z,100982.75
2022-12-13T14:01:27.077Z,100928.53
2022-12-13T14:04:32.118Z,100963.88
2022-12-13T14:07:27.171Z,100934.06
2022-12-13T14:10:14.141Z,101076.03
2022-12-13T14:13:21.993Z,100998.72
2022-12-13T14:16:30.490Z,101091.63
2022-12-13T14:19:42.646Z,100954.16
2022-12-13T14:22:32.155Z,100927.03
2022-12-13T14:25:19.962Z,100905.59
2022-12-13T14:27:52.563Z,101146.78
2022-12-13T14:30:27.184Z,101076.78
2022-12-13T14:33:01.123Z,100975.84
2022-12-13T14:35:32.233Z,101137.72
2022-12-13T14:38:03.304Z,101133.81
2022-12-13T14:40:35.123Z,101155.97
2022-12-13T14:43:05.096Z,101161.81
2022-12-13T14:45:38.710Z,101161.31
2022-12-13T14:48:15.675Z,101169.19
2022-12-13T14:50:58.473Z,101033.22
2022-12-13T14:53:30.261Z,101168.44
2022-12-13T14:56:10.611Z,101192.13
2022-12-13T14:58:59.572Z,101201.53
2022-12-13T15:01:32.595Z,101202.53
2022-12-13T15:04:28.586Z,101205.19
2022-12-13T15:07:02.889Z,101215.19
2022-12-13T15:09:36.291Z,101223.44
2022-12-13T15:12:15.387Z,101222.44
2022-12-13T15:15:00.075Z,101226.50
2022-12-13T15:17:36.713Z,101234.88
2022-12-13T15:20:25.355Z,101233.75
2022-12-13T15:23:00.783Z,101239.22
2022-12-13T15:25:30.737Z,101227.69
2022-12-13T15:28:00.682Z,101242.91
2022-12-13T15:30:33.233Z,101241.75
2022-12-13T15:33:09.419Z,101251.66
2022-12-13T15:35:39.116Z,101237.88
2022-12-13T15:38:28.650Z,101258.25
2022-12-13T15:40:58.859Z,101257.22
2022-12-13T15:43:34.617Z,101256.97
2022-12-13T15:46:03.598Z,101270.63
2022-12-13T15:48:38.432Z,101268.75
2022-12-13T15:51:13.485Z,101279.53
2022-12-13T15:54:08.684Z,101286.22
2022-12-13T15:56:41.960Z,101289.66
2022-12-13T15:59:27.560Z,101298.88
2022-12-13T16:01:58.892Z,101301.25
2022-12-13T16:04:33.147Z,101304.56
2022-12-13T16:07:03.955Z,101301.78
2022-12-13T16:09:38.546Z,101300.75
2022-12-13T16:12:09.227Z,101307.38
2022-12-13T16:14:49.167Z,101303.06
2022-12-13T16:17:26.012Z,101311.38
2022-12-13T16:20:03.301Z,101321.28
2022-12-13T16:22:36.904Z,101315.22
2022-12-13T16:25:06.503Z,101326.13
2022-12-13T16:27:37.925Z,101328.66
2022-12-13T16:30:16.566Z,101335.84
2022-12-13T16:33:17.465Z,101341.31
2022-12-13T16:35:36.296Z,101349.56
2022-12-13T16:38:09.333Z,101323.81
2022-12-13T16:40:38.974Z,101363.59
2022-12-13T16:43:09.977Z,101332.16
2022-12-13T16:45:42.692Z,101345.97
2022-12-13T16:48:12.644Z,101366.00
2022-12-13T16:50:45.029Z,101362.31
2022-12-13T16:53:17.469Z,101374.44
2022-12-13T16:55:58.316Z,101366.81
2022-12-13T16:58:28.138Z,101355.22
2022-12-13T17:00:59.947Z,101380.31
2022-12-13T17:03:29.522Z,101400.84
2022-12-13T17:06:00.362Z,101382.41
2022-12-13T17:08:29.621Z,101410.28
2022-12-13T17:10:59.352Z,101421.44
2022-12-13T17:13:29.580Z,101421.03
2022-12-13T17:15:59.414Z,101421.63
2022-12-13T17:18:29.103Z,101408.53
2022-12-13T17:20:59.975Z,101445.31
2022-12-13T17:23:29.311Z,101457.28
2022-12-13T17:25:58.938Z,101453.50
2022-12-13T17:28:28.158Z,101452.03
2022-12-13T17:31:06.966Z,101475.22
2022-12-13T17:33:36.767Z,101470.84
2022-12-13T17:36:09.930Z,101468.31
2022-12-13T17:38:39.841Z,101485.75
2022-12-13T17:41:09.079Z,101491.72
2022-12-13T17:43:38.433Z,101510.00
2022-12-13T17:46:10.830Z,101489.47
2022-12-13T17:48:41.329Z,101502.25
2022-12-13T17:51:13.167Z,101490.72
2022-12-13T17:53:44.209Z,101513.88
2022-12-13T17:56:15.547Z,101516.41
2022-12-13T17:58:45.400Z,101510.50
2022-12-13T18:01:15.742Z,101519.25
2022-12-13T18:03:45.577Z,101527.88
2022-12-13T18:06:16.645Z,101525.97
2022-12-13T18:08:46.965Z,101531.97
2022-12-13T18:11:34.865Z,101548.16
2022-12-13T18:14:06.499Z,101546.44
2022-12-13T18:16:38.663Z,101361.50
2022-12-13T18:19:09.359Z,101521.22
2022-12-13T18:21:40.402Z,101428.06
2022-12-13T18:24:11.217Z,101465.81
2022-12-13T18:26:40.537Z,101537.09
2022-12-13T18:29:09.767Z,101564.41
2022-12-13T18:31:39.161Z,101578.84
2022-12-13T18:34:08.753Z,101562.72
2022-12-13T18:36:40.170Z,101543.63
2022-12-13T18:39:09.535Z,101605.38
2022-12-13T18:41:38.866Z,101636.84
2022-12-13T18:44:09.798Z,101537.72
2022-12-13T18:46:44.700Z,101628.50
2022-12-13T18:49:15.359Z,101677.59
2022-12-13T18:51:46.108Z,101545.06
2022-12-13T18:54:15.288Z,101563.97
2022-12-13T18:56:44.517Z,101674.75
2022-12-13T18:59:13.746Z,101380.47
2022-12-13T19:01:43.166Z,101614.41
2022-12-13T19:04:12.402Z,101605.25
2022-12-13T19:06:41.654Z,101624.66
2022-12-13T19:09:12.373Z,101602.00
2022-12-13T19:11:41.587Z,101596.06
2022-12-13T19:14:10.802Z,101654.97
2022-12-13T19:16:40.113Z,101686.91
2022-12-13T19:19:09.894Z,101683.06
2022-12-13T19:21:39.100Z,101744.25
2022-12-13T19:24:11.001Z,101703.00
2022-12-13T19:26:42.139Z,101562.97
2022-12-13T19:29:11.386Z,101596.53
2022-12-13T19:31:40.704Z,101478.47
2022-12-13T19:34:10.358Z,101498.94
2022-12-13T19:36:39.833Z,101582.44
2022-12-13T19:39:09.101Z,101733.88
2022-12-13T19:41:38.339Z,101754.97
2022-12-13T19:44:09.195Z,101689.91
2022-12-13T19:46:38.464Z,101729.69
2022-12-13T19:49:07.716Z,101732.38
2022-12-13T19:51:39.869Z,101785.88
2022-12-13T19:54:11.086Z,101750.59
2022-12-13T19:56:40.278Z,101723.88
2022-12-13T19:59:11.306Z,101593.13
2022-12-13T20:01:40.542Z,101564.22
2022-12-13T20:04:09.843Z,101602.38
2022-12-13T20:06:39.060Z,101683.28
2022-12-13T20:09:08.339Z,101652.78
2022-12-13T20:11:37.922Z,101732.25
2022-12-13T20:14:07.254Z,101667.75
2022-12-13T20:16:38.062Z,101755.69
2022-12-13T20:19:07.279Z,101776.19
2022-12-13T20:21:36.718Z,101578.38
2022-12-13T20:24:06.397Z,101636.88
2022-12-13T20:26:35.658Z,101802.97
2022-12-13T20:29:05.958Z,101803.59
2022-12-13T20:31:39.675Z,101710.81
2022-12-13T20:34:14.569Z,101651.44
2022-12-13T20:36:44.673Z,101844.06
2022-12-13T20:39:15.215Z,101675.47
2022-12-13T20:41:44.518Z,101818.44
2022-12-13T20:44:14.812Z,101700.31
2022-12-13T20:46:45.630Z,101868.06
2022-12-13T20:49:15.036Z,101858.75
2022-12-13T20:51:44.784Z,101894.50
2022-12-13T20:54:14.039Z,101783.41
2022-12-13T20:56:43.296Z,101727.94
2022-12-13T20:59:14.844Z,101854.00
2022-12-13T21:01:48.950Z,101764.09
2022-12-13T21:04:18.900Z,101891.63
2022-12-13T21:06:48.106Z,101892.94
2022-12-13T21:09:17.412Z,101829.94
2022-12-13T21:11:48.548Z,101818.50
2022-12-13T21:14:22.313Z,101929.13
2022-12-13T21:16:54.862Z,101771.34
2022-12-13T21:19:25.816Z,101718.78
2022-12-13T21:21:56.353Z,101757.31
2022-12-13T21:24:27.768Z,101744.78
2022-12-13T21:26:57.473Z,101946.41
2022-12-13T21:29:26.645Z,101838.81
2022-12-13T21:33:52.624Z,101953.97
2022-12-13T21:36:23.606Z,101794.16
2022-12-13T21:38:55.366Z,101934.00
2022-12-13T21:41:25.130Z,101945.75
2022-12-13T21:43:54.982Z,101850.22
2022-12-13T21:46:35.748Z,101904.00
2022-12-13T21:49:16.830Z,101935.22
2022-12-13T21:51:48.214Z,101990.41
2022-12-13T21:54:18.838Z,101975.69
2022-12-13T21:57:04.932Z,101857.94
2022-12-13T21:59:34.222Z,102000.56
2022-12-13T22:02:16.627Z,101893.75
2022-12-13T22:04:48.637Z,101772.47
2022-12-13T22:07:19.962Z,101853.41
2022-12-13T22:09:49.690Z,101883.56
2022-12-13T22:12:24.020Z,101997.06
2022-12-13T22:14:54.199Z,101980.53
2022-12-13T22:17:31.270Z,102026.19
2022-12-13T22:20:04.115Z,102004.22
2022-12-13T22:22:33.428Z,102096.41
2022-12-13T22:25:02.861Z,102015.13
2022-12-13T22:27:32.063Z,102027.88
2022-12-13T22:30:01.309Z,102066.09
2022-12-13T22:32:32.825Z,102082.97
2022-12-13T22:35:04.364Z,102118.56
2022-12-13T22:37:34.029Z,102046.28
2022-12-13T22:40:04.123Z,102139.75
2022-12-13T22:42:33.395Z,102138.69
2022-12-13T22:45:02.647Z,102053.78
2022-12-13T22:47:32.048Z,102079.09
2022-12-13T22:50:01.273Z,102051.09
2022-12-13T22:52:33.897Z,102084.06
2022-12-13T22:55:03.482Z,101984.84
2022-12-13T22:57:32.807Z,101833.81
2022-12-13T23:00:02.036Z,102024.53
2022-12-13T23:02:31.303Z,102015.78
2022-12-13T23:05:00.721Z,102119.03
2022-12-13T23:07:31.611Z,101925.63
2022-12-13T23:10:01.211Z,102182.28
2022-12-13T23:12:47.669Z,102115.63
2022-12-13T23:15:16.859Z,102123.28
2022-12-13T23:17:46.013Z,102073.84
2022-12-13T23:20:15.305Z,102232.47
2022-12-13T23:22:46.098Z,102143.66
2022-12-13T23:25:15.356Z,102169.59
2022-12-13T23:27:44.943Z,102078.91
2022-12-13T23:30:15.206Z,102198.34
2022-12-13T23:32:44.420Z,102180.19
2022-12-13T23:35:14.361Z,102096.25
2022-12-13T23:37:45.226Z,102097.78
2022-12-13T23:40:17.859Z,102205.91
2022-12-13T23:42:47.123Z,102151.09
2022-12-13T23:45:16.408Z,102299.25
2022-12-13T23:47:45.583Z,102298.34
2022-12-13T23:50:14.819Z,102216.34
2022-12-13T23:52:45.761Z,102274.34
2022-12-13T23:55:15.032Z,102257.66
2022-12-13T23:57:44.283Z,102236.31
